Time,TemperatureF,DewpointF,PressureIn,WindDirection,WindDirectionDegrees,WindSpeedMPH,WindSpeedGustMPH,Humidity,HourlyPrecipIn,Conditions,Clouds,dailyrainin,SoftwareType,DateUTC
2013-09-17 00:01:00,76.7,73.3,30.08,NE,45,0.0,1.1,89,0.00,,,0.00,WUHU216HW,2013-09-17 04:01:00,
2013-09-17 00:06:00,76.7,73.3,30.08,NE,45,0.0,1.1,89,0.00,,,0.00,WUHU216HW,2013-09-17 04:06:00,
2013-09-17 00:11:00,76.5,73.1,30.08,NE,45,0.4,0.4,89,0.00,,,0.00,WUHU216HW,2013-09-17 04:11:00,
2013-09-17 00:16:00,76.3,72.9,30.07,NE,45,0.0,0.4,89,0.00,,,0.00,WUHU216HW,2013-09-17 04:16:00,
2013-09-17 00:21:00,76.3,72.9,30.07,NE,45,0.0,0.4,89,0.00,,,0.00,WUHU216HW,2013-09-17 04:21:00,
2013-09-17 00:26:00,76.3,72.9,30.07,NE,45,0.0,0.0,89,0.00,,,0.00,WUHU216HW,2013-09-17 04:26:00,
2013-09-17 00:31:00,76.3,72.9,30.07,NE,45,0.7,0.7,89,0.00,,,0.00,WUHU216HW,2013-09-17 04:31:00,
2013-09-17 00:36:00,76.3,72.9,30.07,NE,45,0.0,0.7,89,0.00,,,0.00,WUHU216HW,2013-09-17 04:36:00,
2013-09-17 00:41:00,76.3,72.9,30.07,NE,45,0.0,0.7,89,0.00,,,0.00,WUHU216HW,2013-09-17 04:41:00,
2013-09-17 00:46:00,76.3,73.3,30.07,NE,45,0.0,0.0,90,0.00,,,0.00,WUHU216HW,2013-09-17 04:46:00,
2013-09-17 00:51:00,76.1,73.1,30.06,NE,45,0.0,0.0,90,0.00,,,0.00,WUHU216HW,2013-09-17 04:51:00,
2013-09-17 00:56:00,76.3,73.3,30.06,NE,45,0.0,0.0,90,0.00,,,0.00,WUHU216HW,2013-09-17 04:56:00,
2013-09-17 01:02:00,76.3,73.3,30.06,NE,45,0.0,0.0,90,0.00,,,0.00,WUHU216HW,2013-09-17 05:02:00,
2013-09-17 01:07:00,76.1,73.1,30.06,NE,45,0.0,0.0,90,0.00,,,0.00,WUHU216HW,2013-09-17 05:07:00,
2013-09-17 01:12:00,76.0,72.9,30.06,NE,45,0.0,0.0,90,0.00,,,0.00,WUHU216HW,2013-09-17 05:12:00,
2013-09-17 01:17:00,76.0,72.9,30.06,NE,45,0.0,0.0,90,0.00,,,0.00,WUHU216HW,2013-09-17 05:17:00,
2013-09-17 01:22:00,76.0,72.9,30.06,NE,45,0.0,0.0,90,0.00,,,0.00,WUHU216HW,2013-09-17 05:22:00,
2013-09-17 01:27:00,76.0,72.9,30.06,NE,45,0.0,0.0,90,0.00,,,0.00,WUHU216HW,2013-09-17 05:27:00,
2013-09-17 01:32:00,76.0,72.9,30.06,NE,45,0.0,0.0,90,0.00,,,0.00,WUHU216HW,2013-09-17 05:32:00,
2013-09-17 01:37:00,75.8,72.7,30.06,NE,45,0.0,0.0,90,0.00,,,0.00,WUHU216HW,2013-09-17 05:37:00,
2013-09-17 01:42:00,75.8,73.0,30.06,NNE,23,0.4,0.7,91,0.00,,,0.00,WUHU216HW,2013-09-17 05:42:00,
2013-09-17 01:47:00,75.6,72.8,30.05,NNE,23,0.0,0.7,91,0.00,,,0.00,WUHU216HW,2013-09-17 05:47:00,
2013-09-17 01:52:00,75.6,72.8,30.05,NNE,23,0.0,0.4,91,0.00,,,0.00,WUHU216HW,2013-09-17 05:52:00,
2013-09-17 01:57:00,75.6,72.8,30.05,NNE,23,0.0,0.0,91,0.00,,,0.00,WUHU216HW,2013-09-17 05:57:00,
2013-09-17 02:02:00,75.4,72.6,30.05,NNE,23,0.0,0.0,91,0.00,,,0.00,WUHU216HW,2013-09-17 06:02:00,
2013-09-17 02:07:00,75.4,72.6,30.05,NNE,23,0.0,0.0,91,0.00,,,0.00,WUHU216HW,2013-09-17 06:07:00,
2013-09-17 02:12:00,75.4,72.6,30.05,NNE,23,0.0,0.0,91,0.00,,,0.00,WUHU216HW,2013-09-17 06:12:00,
2013-09-17 02:17:00,75.2,72.5,30.05,NNE,23,0.0,0.2,91,0.00,,,0.00,WUHU216HW,2013-09-17 06:17:00,
2013-09-17 02:22:00,75.2,72.5,30.05,NNE,23,0.7,0.7,91,0.00,,,0.00,WUHU216HW,2013-09-17 06:22:00,
2013-09-17 02:27:00,75.2,72.5,30.05,NNE,23,0.0,0.7,91,0.00,,,0.00,WUHU216HW,2013-09-17 06:27:00,
2013-09-17 02:32:00,75.2,72.5,30.05,NNE,23,0.0,0.7,91,0.00,,,0.00,WUHU216HW,2013-09-17 06:32:00,
2013-09-17 02:37:00,75.2,72.5,30.05,NNE,23,0.0,0.0,91,0.00,,,0.00,WUHU216HW,2013-09-17 06:37:00,
2013-09-17 02:42:00,75.1,72.3,30.05,NNE,23,0.0,0.0,91,0.00,,,0.00,WUHU216HW,2013-09-17 06:42:00,
2013-09-17 02:47:00,74.9,72.5,30.05,NNE,23,0.0,0.0,92,0.00,,,0.00,WUHU216HW,2013-09-17 06:47:00,
2013-09-17 02:52:00,74.7,72.3,30.05,NNE,23,0.0,0.0,92,0.00,,,0.00,WUHU216HW,2013-09-17 06:52:00,
2013-09-17 02:57:00,74.7,72.3,30.05,NNE,23,0.0,0.0,92,0.00,,,0.00,WUHU216HW,2013-09-17 06:57:00,
2013-09-17 03:02:00,74.5,72.1,30.05,NNE,23,0.0,0.0,92,0.00,,,0.00,WUHU216HW,2013-09-17 07:02:00,
2013-09-17 03:07:00,74.5,72.1,30.05,NNE,23,0.0,0.0,92,0.00,,,0.00,WUHU216HW,2013-09-17 07:07:00,
2013-09-17 03:12:00,74.5,72.1,30.05,NNE,23,0.0,0.0,92,0.00,,,0.00,WUHU216HW,2013-09-17 07:12:00,
2013-09-17 03:17:00,74.5,72.1,30.05,NNE,23,0.4,0.9,92,0.00,,,0.00,WUHU216HW,2013-09-17 07:17:00,
2013-09-17 03:22:00,74.3,71.9,30.05,NNE,23,0.0,0.9,92,0.00,,,0.00,WUHU216HW,2013-09-17 07:22:00,
2013-09-17 03:27:00,74.3,71.9,30.05,NNE,23,0.9,0.9,92,0.00,,,0.00,WUHU216HW,2013-09-17 07:27:00,
2013-09-17 03:32:00,74.2,71.7,30.05,NNE,23,0.0,0.9,92,0.00,,,0.00,WUHU216HW,2013-09-17 07:32:00,
2013-09-17 03:37:00,74.2,71.7,30.05,NNE,23,0.4,0.9,92,0.00,,,0.00,WUHU216HW,2013-09-17 07:37:00,
2013-09-17 03:42:00,74.2,71.7,30.05,NNE,23,0.4,1.1,92,0.00,,,0.00,WUHU216HW,2013-09-17 07:42:00,
2013-09-17 03:47:00,74.2,71.7,30.05,NNE,23,0.0,1.1,92,0.00,,,0.00,WUHU216HW,2013-09-17 07:47:00,
2013-09-17 03:52:00,74.2,71.7,30.05,NNE,23,0.0,0.4,92,0.00,,,0.00,WUHU216HW,2013-09-17 07:52:00,
2013-09-17 03:57:00,74.2,71.7,30.05,NNE,23,0.7,0.9,92,0.00,,,0.00,WUHU216HW,2013-09-17 07:57:00,
2013-09-17 04:02:00,74.3,71.9,30.05,NE,45,1.1,1.1,92,0.00,,,0.00,WUHU216HW,2013-09-17 08:02:00,
2013-09-17 04:07:00,74.3,71.9,30.05,NE,45,0.0,1.1,92,0.00,,,0.00,WUHU216HW,2013-09-17 08:07:00,
2013-09-17 04:12:00,74.2,71.7,30.05,NE,45,0.0,1.1,92,0.00,,,0.00,WUHU216HW,2013-09-17 08:12:00,
2013-09-17 04:17:00,74.2,71.7,30.05,NE,45,0.0,0.0,92,0.00,,,0.00,WUHU216HW,2013-09-17 08:17:00,
2013-09-17 04:22:00,74.2,71.7,30.05,NE,45,0.0,0.0,92,0.00,,,0.00,WUHU216HW,2013-09-17 08:22:00,
2013-09-17 04:27:00,74.2,71.7,30.05,NE,45,0.0,0.0,92,0.00,,,0.00,WUHU216HW,2013-09-17 08:27:00,
2013-09-17 04:32:00,74.0,71.6,30.05,NE,45,0.0,0.0,92,0.00,,,0.00,WUHU216HW,2013-09-17 08:32:00,
2013-09-17 04:37:00,74.0,71.6,30.05,NNE,23,0.0,0.0,92,0.00,,,0.00,WUHU216HW,2013-09-17 08:37:00,
2013-09-17 04:42:00,73.8,71.4,30.05,NNE,23,0.0,0.0,92,0.00,,,0.00,WUHU216HW,2013-09-17 08:42:00,
2013-09-17 04:47:00,73.8,71.4,30.05,NNE,23,0.0,0.4,92,0.00,,,0.00,WUHU216HW,2013-09-17 08:47:00,
2013-09-17 04:52:00,73.6,71.2,30.05,NNE,23,0.0,0.4,92,0.00,,,0.00,WUHU216HW,2013-09-17 08:52:00,
2013-09-17 04:57:00,73.6,71.2,30.05,NNE,23,0.0,0.0,92,0.00,,,0.00,WUHU216HW,2013-09-17 08:57:00,
2013-09-17 05:02:00,73.4,71.0,30.05,NNE,23,0.0,0.0,92,0.00,,,0.00,WUHU216HW,2013-09-17 09:02:00,
2013-09-17 05:07:00,73.4,71.0,30.05,NNE,23,0.0,0.0,92,0.00,,,0.00,WUHU216HW,2013-09-17 09:07:00,
2013-09-17 05:12:00,73.4,71.0,30.05,NNE,23,0.0,0.0,92,0.00,,,0.00,WUHU216HW,2013-09-17 09:12:00,
2013-09-17 05:17:00,73.4,71.0,30.05,NNE,23,0.0,0.0,92,0.00,,,0.00,WUHU216HW,2013-09-17 09:17:00,
2013-09-17 05:22:00,73.4,71.0,30.05,NNE,23,0.4,0.9,92,0.00,,,0.00,WUHU216HW,2013-09-17 09:22:00,
2013-09-17 05:27:00,73.3,70.8,30.05,NNE,23,0.0,0.9,92,0.00,,,0.00,WUHU216HW,2013-09-17 09:27:00,
2013-09-17 05:32:00,73.3,71.1,30.06,NNE,23,0.0,0.4,93,0.00,,,0.00,WUHU216HW,2013-09-17 09:32:00,
2013-09-17 05:37:00,73.3,71.1,30.06,NNE,23,0.0,0.0,93,0.00,,,0.00,WUHU216HW,2013-09-17 09:37:00,
2013-09-17 05:42:00,73.3,71.1,30.06,NNE,23,0.0,0.0,93,0.00,,,0.00,WUHU216HW,2013-09-17 09:42:00,
2013-09-17 05:47:00,73.3,71.1,30.06,NNE,23,0.0,0.0,93,0.00,,,0.00,WUHU216HW,2013-09-17 09:47:00,
2013-09-17 05:52:00,73.3,70.8,30.06,NNE,23,0.4,1.1,92,0.00,,,0.00,WUHU216HW,2013-09-17 09:52:00,
2013-09-17 05:57:00,73.1,70.7,30.06,NE,45,0.4,1.1,92,0.00,,,0.00,WUHU216HW,2013-09-17 09:57:00,
2013-09-17 06:02:00,73.1,70.7,30.06,NE,45,0.4,1.1,92,0.00,,,0.00,WUHU216HW,2013-09-17 10:02:00,
2013-09-17 06:07:00,73.1,70.7,30.07,NE,45,2.2,2.2,92,0.00,,,0.00,WUHU216HW,2013-09-17 10:07:00,
2013-09-17 06:12:00,73.1,70.7,30.07,NE,45,0.7,2.2,92,0.00,,,0.00,WUHU216HW,2013-09-17 10:12:00,
2013-09-17 06:17:00,73.1,70.7,30.07,NNE,23,0.0,1.1,92,0.00,,,0.00,WUHU216HW,2013-09-17 10:17:00,
2013-09-17 06:22:00,73.1,70.7,30.07,NE,45,0.7,1.6,92,0.00,,,0.00,WUHU216HW,2013-09-17 10:22:00,
2013-09-17 06:27:00,72.9,70.5,30.08,NE,45,0.7,1.6,92,0.00,,,0.00,WUHU216HW,2013-09-17 10:27:00,
2013-09-17 06:32:00,72.9,70.5,30.08,NE,45,0.4,1.3,92,0.00,,,0.00,WUHU216HW,2013-09-17 10:32:00,
2013-09-17 06:37:00,72.9,70.5,30.08,NE,45,0.0,1.1,92,0.00,,,0.00,WUHU216HW,2013-09-17 10:37:00,
2013-09-17 06:42:00,72.9,70.5,30.08,North,0,1.1,1.6,92,0.00,,,0.00,WUHU216HW,2013-09-17 10:42:00,
2013-09-17 06:47:00,72.9,70.5,30.08,North,0,1.1,1.6,92,0.00,,,0.00,WUHU216HW,2013-09-17 10:47:00,
2013-09-17 06:52:00,72.7,70.3,30.08,NNE,23,0.7,1.3,92,0.00,,,0.00,WUHU216HW,2013-09-17 10:52:00,
2013-09-17 06:57:00,72.7,70.3,30.08,NNE,23,0.7,1.3,92,0.00,,,0.00,WUHU216HW,2013-09-17 10:57:00,
2013-09-17 07:02:00,72.7,70.3,30.09,NE,45,2.2,2.2,92,0.00,,,0.00,WUHU216HW,2013-09-17 11:02:00,
2013-09-17 07:07:00,72.7,70.6,30.09,NE,45,0.7,2.2,93,0.00,,,0.00,WUHU216HW,2013-09-17 11:07:00,
2013-09-17 07:12:00,72.5,70.4,30.09,NE,45,0.4,2.2,93,0.00,,,0.00,WUHU216HW,2013-09-17 11:12:00,
2013-09-17 07:17:00,72.5,70.4,30.09,NNE,23,0.7,1.6,93,0.00,,,0.00,WUHU216HW,2013-09-17 11:17:00,
2013-09-17 07:22:00,72.7,70.6,30.09,NE,45,0.7,1.6,93,0.00,,,0.00,WUHU216HW,2013-09-17 11:22:00,
2013-09-17 07:27:00,72.7,70.6,30.10,NE,45,0.9,1.1,93,0.00,,,0.00,WUHU216HW,2013-09-17 11:27:00,
2013-09-17 07:32:00,72.7,70.6,30.09,North,0,1.3,1.6,93,0.00,,,0.00,WUHU216HW,2013-09-17 11:32:00,
2013-09-17 07:37:00,72.7,70.6,30.10,NE,45,1.1,2.2,93,0.00,,,0.00,WUHU216HW,2013-09-17 11:37:00,
2013-09-17 07:42:00,72.7,70.6,30.10,NE,45,0.9,2.2,93,0.00,,,0.00,WUHU216HW,2013-09-17 11:42:00,
2013-09-17 07:47:00,72.7,70.6,30.10,NNE,23,1.1,2.0,93,0.00,,,0.00,WUHU216HW,2013-09-17 11:47:00,
2013-09-17 07:52:00,72.7,70.6,30.10,NNE,23,0.9,1.8,93,0.00,,,0.00,WUHU216HW,2013-09-17 11:52:00,
2013-09-17 07:57:00,72.7,70.6,30.10,NNE,23,0.9,1.8,93,0.00,,,0.00,WUHU216HW,2013-09-17 11:57:00,
2013-09-17 08:02:00,72.9,70.7,30.10,NE,45,1.1,3.1,93,0.00,,,0.00,WUHU216HW,2013-09-17 12:02:00,
2013-09-17 08:07:00,72.9,70.7,30.10,NE,45,1.8,3.1,93,0.00,,,0.00,WUHU216HW,2013-09-17 12:07:00,
2013-09-17 08:12:00,73.1,70.7,30.10,NE,45,1.1,2.2,92,0.00,,,0.00,WUHU216HW,2013-09-17 12:12:00,
2013-09-17 08:17:00,73.1,70.7,30.11,NE,45,1.1,1.8,92,0.00,,,0.00,WUHU216HW,2013-09-17 12:17:00,
2013-09-17 08:22:00,73.3,70.8,30.11,NE,45,0.0,1.8,92,0.00,,,0.00,WUHU216HW,2013-09-17 12:22:00,
2013-09-17 08:27:00,73.4,71.3,30.11,NNE,23,0.7,1.1,93,0.00,,,0.00,WUHU216HW,2013-09-17 12:27:00,
2013-09-17 08:32:00,73.6,71.5,30.11,NE,45,1.8,1.8,93,0.00,,,0.00,WUHU216HW,2013-09-17 12:32:00,
2013-09-17 08:37:00,73.8,71.6,30.11,NE,45,1.6,2.5,93,0.00,,,0.00,WUHU216HW,2013-09-17 12:37:00,
2013-09-17 08:42:00,73.8,71.6,30.11,NNE,23,1.6,2.5,93,0.00,,,0.00,WUHU216HW,2013-09-17 12:42:00,
2013-09-17 08:47:00,73.8,71.6,30.11,NE,45,1.6,2.5,93,0.00,,,0.00,WUHU216HW,2013-09-17 12:47:00,
2013-09-17 08:52:00,73.8,71.6,30.11,NNE,23,0.9,2.9,93,0.00,,,0.00,WUHU216HW,2013-09-17 12:52:00,
2013-09-17 08:57:00,74.0,71.8,30.12,NNE,23,0.9,2.9,93,0.00,,,0.00,WUHU216HW,2013-09-17 12:57:00,
2013-09-17 09:02:00,74.2,71.7,30.12,NE,45,1.8,2.2,92,0.00,,,0.00,WUHU216HW,2013-09-17 13:02:00,
2013-09-17 09:07:00,74.2,71.7,30.13,NE,45,0.9,2.5,92,0.00,,,0.00,WUHU216HW,2013-09-17 13:07:00,
2013-09-17 09:12:00,74.5,72.1,30.13,NE,45,1.6,2.9,92,0.00,,,0.00,WUHU216HW,2013-09-17 13:12:00,
2013-09-17 09:17:00,74.7,72.3,30.13,ENE,68,1.1,2.9,92,0.00,,,0.00,WUHU216HW,2013-09-17 13:17:00,
2013-09-17 09:22:00,75.1,72.6,30.13,ENE,68,3.4,3.4,92,0.00,,,0.00,WUHU216HW,2013-09-17 13:22:00,
2013-09-17 09:27:00,75.4,73.0,30.13,ENE,68,2.9,3.4,92,0.00,,,0.00,WUHU216HW,2013-09-17 13:27:00,
2013-09-17 09:32:00,76.0,73.2,30.13,NE,45,2.2,3.4,91,0.00,,,0.00,WUHU216HW,2013-09-17 13:32:00,
2013-09-17 09:37:00,76.3,73.3,30.13,ENE,68,4.0,4.3,90,0.00,,,0.00,WUHU216HW,2013-09-17 13:37:00,
2013-09-17 09:42:00,76.7,73.6,30.14,NE,45,1.8,4.3,90,0.00,,,0.00,WUHU216HW,2013-09-17 13:42:00,
2013-09-17 09:47:00,77.4,74.3,30.14,NE,45,2.5,4.3,90,0.00,,,0.00,WUHU216HW,2013-09-17 13:47:00,
2013-09-17 09:52:00,77.9,74.5,30.14,East,90,1.8,4.3,89,0.00,,,0.00,WUHU216HW,2013-09-17 13:52:00,
2013-09-17 09:57:00,78.1,74.3,30.14,NNE,23,1.1,2.7,88,0.00,,,0.00,WUHU216HW,2013-09-17 13:57:00,
2013-09-17 10:02:00,79.0,75.3,30.14,NE,45,1.6,3.1,88,0.00,,,0.00,WUHU216HW,2013-09-17 14:02:00,
2013-09-17 10:07:00,79.6,75.3,30.14,NE,45,2.5,4.0,87,0.00,,,0.00,WUHU216HW,2013-09-17 14:07:00,
2013-09-17 10:12:00,79.9,75.3,30.13,ENE,68,1.3,4.0,86,0.00,,,0.00,WUHU216HW,2013-09-17 14:12:00,
2013-09-17 10:17:00,80.3,75.3,30.14,East,90,0.4,3.4,85,0.00,,,0.00,WUHU216HW,2013-09-17 14:17:00,
2013-09-17 10:22:00,80.8,75.5,30.14,ENE,68,2.9,3.4,84,0.00,,,0.00,WUHU216HW,2013-09-17 14:22:00,
2013-09-17 10:27:00,80.5,75.2,30.14,ENE,68,0.7,3.1,84,0.00,,,0.00,WUHU216HW,2013-09-17 14:27:00,
2013-09-17 10:32:00,80.6,75.0,30.15,NE,45,2.9,3.6,83,0.00,,,0.00,WUHU216HW,2013-09-17 14:32:00,
2013-09-17 10:37:00,81.0,75.3,30.14,NE,45,3.4,4.7,83,0.00,,,0.00,WUHU216HW,2013-09-17 14:37:00,
2013-09-17 10:42:00,81.5,76.2,30.15,ENE,68,2.5,4.7,84,0.00,,,0.00,WUHU216HW,2013-09-17 14:42:00,
2013-09-17 10:47:00,81.7,76.1,30.15,NNE,23,2.7,5.1,83,0.00,,,0.00,WUHU216HW,2013-09-17 14:47:00,
2013-09-17 10:52:00,81.7,75.8,30.15,ENE,68,3.4,5.1,82,0.00,,,0.00,WUHU216HW,2013-09-17 14:52:00,
2013-09-17 10:57:00,81.7,75.8,30.15,ENE,68,1.8,4.0,82,0.00,,,0.00,WUHU216HW,2013-09-17 14:57:00,
2013-09-17 11:02:00,81.5,75.6,30.15,ENE,68,2.5,3.6,82,0.00,,,0.00,WUHU216HW,2013-09-17 15:02:00,
2013-09-17 11:07:00,81.9,76.0,30.15,East,90,1.1,4.3,82,0.00,,,0.00,WUHU216HW,2013-09-17 15:07:00,
2013-09-17 11:12:00,82.3,76.3,30.15,ENE,68,1.6,4.3,82,0.00,,,0.00,WUHU216HW,2013-09-17 15:12:00,
2013-09-17 11:17:00,83.2,76.4,30.15,ENE,68,0.9,3.8,80,0.00,,,0.00,WUHU216HW,2013-09-17 15:17:00,
2013-09-17 11:22:00,83.9,76.7,30.15,East,90,1.1,4.0,79,0.00,,,0.00,WUHU216HW,2013-09-17 15:22:00,
2013-09-17 11:27:00,84.4,77.2,30.15,NE,45,3.6,4.0,79,0.00,,,0.00,WUHU216HW,2013-09-17 15:27:00,
2013-09-17 11:32:00,84.4,76.4,30.15,NE,45,3.4,5.4,77,0.00,,,0.00,WUHU216HW,2013-09-17 15:32:00,
2013-09-17 11:37:00,84.1,76.1,30.15,ENE,68,3.4,5.4,77,0.00,,,0.00,WUHU216HW,2013-09-17 15:37:00,
2013-09-17 11:42:00,84.4,76.4,30.15,NE,45,2.7,5.4,77,0.00,,,0.00,WUHU216HW,2013-09-17 15:42:00,
2013-09-17 11:47:00,84.2,75.8,30.15,ENE,68,1.3,4.7,76,0.00,,,0.00,WUHU216HW,2013-09-17 15:47:00,
2013-09-17 11:52:00,84.6,76.6,30.15,ESE,113,1.3,4.0,77,0.00,,,0.00,WUHU216HW,2013-09-17 15:52:00,
2013-09-17 11:57:00,85.0,76.5,30.15,East,90,0.7,4.0,76,0.00,,,0.00,WUHU216HW,2013-09-17 15:57:00,
2013-09-17 12:02:00,85.0,76.1,30.14,NE,45,1.1,2.5,75,0.00,,,0.00,WUHU216HW,2013-09-17 16:02:00,
2013-09-17 12:07:00,85.0,76.5,30.14,ENE,68,2.5,2.7,76,0.00,,,0.00,WUHU216HW,2013-09-17 16:07:00,
2013-09-17 12:12:00,86.0,77.2,30.14,NE,45,2.0,4.5,75,0.00,,,0.00,WUHU216HW,2013-09-17 16:12:00,
2013-09-17 12:18:00,86.8,77.1,30.14,NE,45,4.0,4.7,73,0.00,,,0.00,WUHU216HW,2013-09-17 16:18:00,
2013-09-17 12:23:00,86.6,76.5,30.14,NE,45,4.0,5.8,72,0.00,,,0.00,WUHU216HW,2013-09-17 16:23:00,
2013-09-17 12:28:00,85.7,75.7,30.13,ENE,68,2.5,5.8,72,0.00,,,0.00,WUHU216HW,2013-09-17 16:28:00,
2013-09-17 12:33:00,85.3,75.7,30.13,NE,45,3.6,4.5,73,0.00,,,0.00,WUHU216HW,2013-09-17 16:33:00,
2013-09-17 12:38:00,85.3,76.2,30.13,NE,45,1.1,3.6,74,0.00,,,0.00,WUHU216HW,2013-09-17 16:38:00,
2013-09-17 12:43:00,85.7,76.5,30.13,NNW,338,2.5,4.0,74,0.00,,,0.00,WUHU216HW,2013-09-17 16:43:00,
2013-09-17 12:48:00,86.4,76.8,30.13,ENE,68,2.9,4.0,73,0.00,,,0.00,WUHU216HW,2013-09-17 16:48:00,
2013-09-17 12:53:00,86.2,75.8,30.13,ENE,68,2.7,4.0,71,0.00,,,0.00,WUHU216HW,2013-09-17 16:53:00,
2013-09-17 12:58:00,85.5,75.5,30.13,ENE,68,2.7,5.4,72,0.00,,,0.00,WUHU216HW,2013-09-17 16:58:00,
2013-09-17 13:03:00,84.8,75.2,30.13,North,0,2.5,5.4,73,0.00,,,0.00,WUHU216HW,2013-09-17 17:03:00,
2013-09-17 13:08:00,84.4,74.8,30.12,SE,135,0.7,4.3,73,0.00,,,0.00,WUHU216HW,2013-09-17 17:08:00,
2013-09-17 13:13:00,84.8,75.2,30.12,ENE,68,4.0,4.3,73,0.00,,,0.00,WUHU216HW,2013-09-17 17:13:00,
2013-09-17 13:18:00,85.9,75.9,30.12,NNE,23,1.8,4.9,72,0.00,,,0.00,WUHU216HW,2013-09-17 17:18:00,
2013-09-17 13:23:00,86.4,74.6,30.12,ENE,68,3.8,4.9,68,0.00,,,0.00,WUHU216HW,2013-09-17 17:23:00,
2013-09-17 13:28:00,86.0,74.4,30.12,ENE,68,4.0,4.7,68,0.00,,,0.00,WUHU216HW,2013-09-17 17:28:00,
2013-09-17 13:33:00,85.7,75.2,30.11,ENE,68,1.1,4.7,71,0.00,,,0.00,WUHU216HW,2013-09-17 17:33:00,
2013-09-17 13:38:00,86.8,76.7,30.11,ENE,68,1.3,4.3,72,0.00,,,0.00,WUHU216HW,2013-09-17 17:38:00,
2013-09-17 13:43:00,87.3,75.4,30.11,East,90,2.5,5.6,68,0.00,,,0.00,WUHU216HW,2013-09-17 17:43:00,
2013-09-17 13:48:00,86.6,74.8,30.11,NNE,23,2.2,5.6,68,0.00,,,0.00,WUHU216HW,2013-09-17 17:48:00,
2013-09-17 13:53:00,86.6,75.7,30.11,East,90,1.1,5.4,70,0.00,,,0.00,WUHU216HW,2013-09-17 17:53:00,
2013-09-17 13:58:00,86.0,75.6,30.11,ENE,68,2.7,3.8,71,0.01,,,0.00,WUHU216HW,2013-09-17 17:58:00,
2013-09-17 14:03:00,84.6,75.0,30.11,NE,45,1.1,3.8,73,0.05,,,0.05,WUHU216HW,2013-09-17 18:03:00,
2013-09-17 14:08:00,83.9,75.1,30.10,NE,45,0.7,1.8,75,0.05,,,0.05,WUHU216HW,2013-09-17 18:08:00,
2013-09-17 14:13:00,83.5,75.2,30.10,NE,45,0.0,1.8,76,0.05,,,0.05,WUHU216HW,2013-09-17 18:13:00,
2013-09-17 14:18:00,83.7,76.2,30.10,NE,45,0.4,1.8,78,0.05,,,0.05,WUHU216HW,2013-09-17 18:18:00,
2013-09-17 14:23:00,84.2,76.6,30.10,SE,135,0.4,1.8,78,0.05,,,0.05,WUHU216HW,2013-09-17 18:23:00,
2013-09-17 14:28:00,84.2,76.2,30.10,NE,45,3.1,3.1,77,0.05,,,0.05,WUHU216HW,2013-09-17 18:28:00,
2013-09-17 14:33:00,83.9,75.5,30.10,NE,45,0.0,4.5,76,0.05,,,0.05,WUHU216HW,2013-09-17 18:33:00,
2013-09-17 14:38:00,83.9,75.5,30.10,ENE,68,0.7,4.5,76,0.05,,,0.05,WUHU216HW,2013-09-17 18:38:00,
2013-09-17 14:43:00,83.5,75.2,30.09,ENE,68,2.0,4.0,76,0.05,,,0.05,WUHU216HW,2013-09-17 18:43:00,
2013-09-17 14:48:00,83.2,74.8,30.09,NE,45,2.5,4.3,76,0.05,,,0.05,WUHU216HW,2013-09-17 18:48:00,
2013-09-17 14:53:00,83.3,75.0,30.09,ENE,68,0.9,4.3,76,0.05,,,0.05,WUHU216HW,2013-09-17 18:53:00,
2013-09-17 14:58:00,83.7,74.9,30.09,ENE,68,2.5,6.3,75,0.03,,,0.05,WUHU216HW,2013-09-17 18:58:00,
2013-09-17 15:03:00,84.1,75.7,30.09,ESE,113,1.1,6.3,76,0.00,,,0.05,WUHU216HW,2013-09-17 19:03:00,
2013-09-17 15:08:00,83.7,75.3,30.09,ENE,68,3.4,4.7,76,0.00,,,0.05,WUHU216HW,2013-09-17 19:08:00,
2013-09-17 15:13:00,83.2,75.3,30.09,ENE,68,1.6,4.7,77,0.00,,,0.05,WUHU216HW,2013-09-17 19:13:00,
2013-09-17 15:18:00,83.2,74.8,30.09,NE,45,7.6,7.6,76,0.00,,,0.05,WUHU216HW,2013-09-17 19:18:00,
2013-09-17 15:23:00,83.3,75.0,30.08,East,90,3.6,7.6,76,0.00,,,0.05,WUHU216HW,2013-09-17 19:23:00,
2013-09-17 15:28:00,83.3,75.0,30.08,NNE,23,6.9,7.6,76,0.00,,,0.05,WUHU216HW,2013-09-17 19:28:00,
2013-09-17 15:33:00,82.6,74.7,30.09,ENE,68,1.8,6.9,77,0.05,,,0.10,WUHU216HW,2013-09-17 19:33:00,
2013-09-17 15:38:00,81.7,74.6,30.08,NE,45,0.7,5.6,79,0.09,,,0.14,WUHU216HW,2013-09-17 19:38:00,
2013-09-17 15:43:00,81.5,74.9,30.08,NE,45,0.4,2.5,80,0.09,,,0.14,WUHU216HW,2013-09-17 19:43:00,
2013-09-17 15:48:00,81.7,75.4,30.08,NNE,23,0.7,2.5,81,0.09,,,0.14,WUHU216HW,2013-09-17 19:48:00,
2013-09-17 15:53:00,81.7,75.8,30.08,NE,45,1.3,2.7,82,0.09,,,0.14,WUHU216HW,2013-09-17 19:53:00,
2013-09-17 15:58:00,81.7,75.8,30.08,NE,45,2.5,2.9,82,0.09,,,0.14,WUHU216HW,2013-09-17 19:58:00,
2013-09-17 16:03:00,81.4,74.7,30.08,ENE,68,4.9,6.5,80,0.09,,,0.14,WUHU216HW,2013-09-17 20:03:00,
2013-09-17 16:08:00,81.4,74.4,30.08,NE,45,4.5,6.5,79,0.09,,,0.14,WUHU216HW,2013-09-17 20:08:00,
2013-09-17 16:13:00,80.8,74.2,30.08,NE,45,2.5,4.9,80,0.09,,,0.14,WUHU216HW,2013-09-17 20:13:00,
2013-09-17 16:18:00,80.6,74.4,30.07,NNE,23,3.4,4.5,81,0.09,,,0.14,WUHU216HW,2013-09-17 20:18:00,
2013-09-17 16:23:00,81.0,74.7,30.07,NNE,23,2.5,6.0,81,0.09,,,0.14,WUHU216HW,2013-09-17 20:23:00,
2013-09-17 16:28:00,81.4,75.1,30.07,East,90,3.1,6.0,81,0.09,,,0.14,WUHU216HW,2013-09-17 20:28:00,
2013-09-17 16:33:00,81.7,75.4,30.07,North,0,0.7,4.0,81,0.02,,,0.14,WUHU216HW,2013-09-17 20:33:00,
2013-09-17 16:38:00,82.1,75.0,30.07,ENE,68,1.8,4.3,79,0.00,,,0.14,WUHU216HW,2013-09-17 20:38:00,
2013-09-17 16:43:00,81.9,74.8,30.08,NE,45,4.0,4.3,79,0.00,,,0.14,WUHU216HW,2013-09-17 20:43:00,
2013-09-17 16:48:00,81.4,74.4,30.08,NNE,23,1.3,4.0,79,0.00,,,0.14,WUHU216HW,2013-09-17 20:48:00,
2013-09-17 16:53:00,81.2,74.2,30.08,East,90,2.5,5.4,79,0.00,,,0.14,WUHU216HW,2013-09-17 20:53:00,
2013-09-17 16:58:00,81.4,73.9,30.08,ENE,68,2.5,5.4,78,0.00,,,0.14,WUHU216HW,2013-09-17 20:58:00,
2013-09-17 17:03:00,81.5,73.7,30.08,NE,45,4.0,5.8,77,0.00,,,0.14,WUHU216HW,2013-09-17 21:03:00,
2013-09-17 17:08:00,81.4,73.9,30.08,NE,45,2.0,5.8,78,0.00,,,0.14,WUHU216HW,2013-09-17 21:08:00,
2013-09-17 17:13:00,81.0,73.5,30.08,ENE,68,3.4,4.5,78,0.00,,,0.14,WUHU216HW,2013-09-17 21:13:00,
2013-09-17 17:18:00,80.6,73.6,30.08,ENE,68,2.0,6.9,79,0.00,,,0.14,WUHU216HW,2013-09-17 21:18:00,
2013-09-17 17:23:00,80.3,73.3,30.08,NE,45,3.1,6.9,79,0.00,,,0.14,WUHU216HW,2013-09-17 21:23:00,
2013-09-17 17:28:00,79.9,73.3,30.08,NE,45,3.6,4.7,80,0.00,,,0.14,WUHU216HW,2013-09-17 21:28:00,
2013-09-17 17:33:00,79.7,73.5,30.08,NE,45,1.1,4.7,81,0.00,,,0.14,WUHU216HW,2013-09-17 21:33:00,
2013-09-17 17:38:00,79.6,73.3,30.08,NE,45,3.8,4.7,81,0.00,,,0.14,WUHU216HW,2013-09-17 21:38:00,
2013-09-17 17:43:00,79.2,72.9,30.09,NE,45,2.0,3.8,81,0.00,,,0.14,WUHU216HW,2013-09-17 21:43:00,
2013-09-17 17:48:00,79.0,73.1,30.09,NE,45,2.7,4.3,82,0.00,,,0.14,WUHU216HW,2013-09-17 21:48:00,
2013-09-17 17:53:00,78.8,72.9,30.09,ENE,68,2.2,5.1,82,0.00,,,0.14,WUHU216HW,2013-09-17 21:53:00,
2013-09-17 17:58:00,78.7,72.7,30.09,NE,45,4.0,5.1,82,0.00,,,0.14,WUHU216HW,2013-09-17 21:58:00,
2013-09-17 18:04:00,78.5,72.5,30.08,NE,45,3.4,4.0,82,0.00,,,0.14,WUHU216HW,2013-09-17 22:04:00,
2013-09-17 18:09:00,78.7,72.7,30.08,NE,45,4.3,4.3,82,0.00,,,0.14,WUHU216HW,2013-09-17 22:09:00,
2013-09-17 18:14:00,78.5,72.5,30.08,ENE,68,3.6,4.3,82,0.00,,,0.14,WUHU216HW,2013-09-17 22:14:00,
2013-09-17 18:19:00,78.5,72.2,30.08,ENE,68,2.0,4.3,81,0.00,,,0.14,WUHU216HW,2013-09-17 22:19:00,
2013-09-17 18:24:00,78.5,72.5,30.08,ENE,68,0.9,4.5,82,0.00,,,0.14,WUHU216HW,2013-09-17 22:24:00,
2013-09-17 18:29:00,78.5,72.2,30.09,ENE,68,1.6,4.5,81,0.00,,,0.14,WUHU216HW,2013-09-17 22:29:00,
2013-09-17 18:34:00,78.5,72.2,30.09,ENE,68,3.6,3.6,81,0.00,,,0.14,WUHU216HW,2013-09-17 22:34:00,
2013-09-17 18:39:00,78.5,72.2,30.08,NE,45,2.2,6.3,81,0.00,,,0.14,WUHU216HW,2013-09-17 22:39:00,
2013-09-17 18:44:00,78.5,72.2,30.08,ENE,68,3.8,6.3,81,0.00,,,0.14,WUHU216HW,2013-09-17 22:44:00,
2013-09-17 18:49:00,78.5,72.2,30.09,ENE,68,2.7,4.7,81,0.00,,,0.14,WUHU216HW,2013-09-17 22:49:00,
2013-09-17 18:54:00,78.5,72.2,30.08,NE,45,2.2,3.8,81,0.00,,,0.14,WUHU216HW,2013-09-17 22:54:00,
2013-09-17 18:59:00,78.5,72.2,30.09,NE,45,3.4,3.6,81,0.00,,,0.14,WUHU216HW,2013-09-17 22:59:00,
2013-09-17 19:04:00,78.3,72.0,30.09,ENE,68,6.0,6.0,81,0.00,,,0.14,WUHU216HW,2013-09-17 23:04:00,
2013-09-17 19:09:00,78.3,72.0,30.09,ENE,68,2.5,6.0,81,0.00,,,0.14,WUHU216HW,2013-09-17 23:09:00,
2013-09-17 19:14:00,78.1,71.8,30.09,ENE,68,0.9,4.3,81,0.00,,,0.14,WUHU216HW,2013-09-17 23:14:00,
2013-09-17 19:19:00,78.1,71.8,30.09,ENE,68,2.9,4.0,81,0.00,,,0.14,WUHU216HW,2013-09-17 23:19:00,
2013-09-17 19:24:00,77.9,72.0,30.10,NE,45,1.8,4.0,82,0.00,,,0.14,WUHU216HW,2013-09-17 23:24:00,
2013-09-17 19:29:00,77.8,71.8,30.10,ENE,68,2.5,4.0,82,0.00,,,0.14,WUHU216HW,2013-09-17 23:29:00,
2013-09-17 19:34:00,77.6,71.6,30.10,NE,45,2.0,5.1,82,0.00,,,0.14,WUHU216HW,2013-09-17 23:34:00,
2013-09-17 19:39:00,77.6,72.0,30.10,ENE,68,3.1,5.1,83,0.00,,,0.14,WUHU216HW,2013-09-17 23:39:00,
2013-09-17 19:44:00,77.4,71.8,30.10,NE,45,2.2,4.0,83,0.00,,,0.14,WUHU216HW,2013-09-17 23:44:00,
2013-09-17 19:49:00,77.2,71.6,30.10,ENE,68,2.5,4.0,83,0.00,,,0.14,WUHU216HW,2013-09-17 23:49:00,
2013-09-17 19:54:00,77.2,71.6,30.09,ENE,68,2.2,3.6,83,0.00,,,0.14,WUHU216HW,2013-09-17 23:54:00,
2013-09-17 19:59:00,77.0,71.5,30.09,NE,45,1.8,2.9,83,0.00,,,0.14,WUHU216HW,2013-09-17 23:59:00,
2013-09-17 20:04:00,77.0,71.8,30.09,NE,45,1.8,4.3,84,0.00,,,0.14,WUHU216HW,2013-09-18 00:04:00,
2013-09-17 20:09:00,76.9,71.6,30.09,ENE,68,2.0,4.3,84,0.00,,,0.14,WUHU216HW,2013-09-18 00:09:00,
2013-09-17 20:14:00,76.9,71.6,30.09,ENE,68,1.8,4.9,84,0.00,,,0.14,WUHU216HW,2013-09-18 00:14:00,
2013-09-17 20:19:00,76.7,71.5,30.09,ENE,68,3.1,4.9,84,0.00,,,0.14,WUHU216HW,2013-09-18 00:19:00,
2013-09-17 20:24:00,76.7,71.5,30.10,NE,45,2.7,4.0,84,0.00,,,0.14,WUHU216HW,2013-09-18 00:24:00,
2013-09-17 20:29:00,76.7,71.1,30.10,NNE,23,1.6,4.0,83,0.00,,,0.14,WUHU216HW,2013-09-18 00:29:00,
2013-09-17 20:34:00,76.7,71.5,30.10,ENE,68,2.0,4.0,84,0.00,,,0.14,WUHU216HW,2013-09-18 00:34:00,
2013-09-17 20:39:00,76.7,71.5,30.11,NE,45,1.8,4.0,84,0.00,,,0.14,WUHU216HW,2013-09-18 00:39:00,
2013-09-17 20:44:00,76.7,71.5,30.11,NNE,23,2.0,4.0,84,0.00,,,0.14,WUHU216HW,2013-09-18 00:44:00,
2013-09-17 20:49:00,76.5,70.9,30.11,ENE,68,2.5,4.0,83,0.00,,,0.14,WUHU216HW,2013-09-18 00:49:00,
2013-09-17 20:54:00,76.5,70.9,30.11,NE,45,1.3,3.6,83,0.00,,,0.14,WUHU216HW,2013-09-18 00:54:00,
2013-09-17 20:59:00,76.5,70.9,30.11,NE,45,2.5,3.6,83,0.00,,,0.14,WUHU216HW,2013-09-18 00:59:00,
2013-09-17 21:04:00,76.3,70.8,30.11,ENE,68,3.1,3.8,83,0.00,,,0.14,WUHU216HW,2013-09-18 01:04:00,
2013-09-17 21:09:00,76.3,70.8,30.12,ENE,68,4.0,4.0,83,0.00,,,0.14,WUHU216HW,2013-09-18 01:09:00,
2013-09-17 21:14:00,76.3,70.8,30.11,NNE,23,1.6,4.0,83,0.00,,,0.14,WUHU216HW,2013-09-18 01:14:00,
2013-09-17 21:19:00,76.1,70.7,30.12,NNE,23,1.8,4.0,83,0.00,,,0.14,WUHU216HW,2013-09-18 01:19:00,
2013-09-17 21:24:00,76.0,70.5,30.12,ENE,68,1.8,3.4,83,0.00,,,0.14,WUHU216HW,2013-09-18 01:24:00,
2013-09-17 21:29:00,76.0,70.5,30.12,ENE,68,3.4,3.4,83,0.00,,,0.14,WUHU216HW,2013-09-18 01:29:00,
2013-09-17 21:34:00,76.0,70.5,30.12,NNE,23,2.5,3.8,83,0.00,,,0.14,WUHU216HW,2013-09-18 01:34:00,
2013-09-17 21:39:00,76.0,70.5,30.12,ENE,68,2.5,3.8,83,0.00,,,0.14,WUHU216HW,2013-09-18 01:39:00,
2013-09-17 21:44:00,75.8,70.3,30.12,NE,45,1.1,3.4,83,0.00,,,0.14,WUHU216HW,2013-09-18 01:44:00,
2013-09-17 21:49:00,75.8,70.3,30.12,NE,45,2.5,3.4,83,0.00,,,0.14,WUHU216HW,2013-09-18 01:49:00,
2013-09-17 21:54:00,75.6,70.1,30.12,NE,45,3.8,4.0,83,0.00,,,0.14,WUHU216HW,2013-09-18 01:54:00,
2013-09-17 21:59:00,75.6,70.1,30.12,ENE,68,2.0,4.0,83,0.00,,,0.14,WUHU216HW,2013-09-18 01:59:00,
2013-09-17 22:04:00,75.4,69.9,30.12,NE,45,4.0,4.0,83,0.00,,,0.14,WUHU216HW,2013-09-18 02:04:00,
2013-09-17 22:09:00,75.4,69.9,30.12,NNE,23,0.9,4.0,83,0.00,,,0.14,WUHU216HW,2013-09-18 02:09:00,
2013-09-17 22:14:00,75.2,69.8,30.12,NNE,23,1.6,2.9,83,0.00,,,0.14,WUHU216HW,2013-09-18 02:14:00,
2013-09-17 22:19:00,75.2,69.8,30.12,NNE,23,2.5,2.9,83,0.00,,,0.14,WUHU216HW,2013-09-18 02:19:00,
2013-09-17 22:24:00,75.1,69.6,30.12,NNE,23,1.8,2.5,83,0.00,,,0.14,WUHU216HW,2013-09-18 02:24:00,
2013-09-17 22:29:00,75.1,69.9,30.12,NE,45,1.6,2.0,84,0.00,,,0.14,WUHU216HW,2013-09-18 02:29:00,
2013-09-17 22:34:00,74.9,69.8,30.12,ENE,68,1.8,3.6,84,0.00,,,0.14,WUHU216HW,2013-09-18 02:34:00,
2013-09-17 22:39:00,74.7,69.6,30.12,NNE,23,0.9,3.6,84,0.00,,,0.14,WUHU216HW,2013-09-18 02:39:00,
2013-09-17 22:44:00,74.7,69.6,30.12,NNE,23,0.9,2.5,84,0.00,,,0.14,WUHU216HW,2013-09-18 02:44:00,
2013-09-17 22:49:00,74.5,69.4,30.12,ENE,68,1.3,2.0,84,0.00,,,0.14,WUHU216HW,2013-09-18 02:49:00,
2013-09-17 22:54:00,74.5,69.4,30.13,NNE,23,1.1,2.2,84,0.00,,,0.14,WUHU216HW,2013-09-18 02:54:00,
2013-09-17 22:59:00,74.3,69.2,30.13,NNE,23,1.6,2.2,84,0.00,,,0.14,WUHU216HW,2013-09-18 02:59:00,
2013-09-17 23:04:00,74.3,69.2,30.13,NE,45,2.0,2.2,84,0.00,,,0.14,WUHU216HW,2013-09-18 03:04:00,
2013-09-17 23:09:00,74.2,69.4,30.13,NNE,23,0.9,2.2,85,0.00,,,0.14,WUHU216HW,2013-09-18 03:09:00,
2013-09-17 23:14:00,74.0,69.2,30.13,NNE,23,1.1,1.8,85,0.00,,,0.14,WUHU216HW,2013-09-18 03:14:00,
2013-09-17 23:19:00,73.8,69.0,30.13,North,0,0.7,1.8,85,0.00,,,0.14,WUHU216HW,2013-09-18 03:19:00,
2013-09-17 23:24:00,73.8,69.0,30.13,North,0,1.1,1.8,85,0.00,,,0.14,WUHU216HW,2013-09-18 03:24:00,
2013-09-17 23:29:00,73.6,68.9,30.13,NE,45,1.1,1.1,85,0.00,,,0.14,WUHU216HW,2013-09-18 03:29:00,
2013-09-17 23:34:00,73.4,68.7,30.13,NNE,23,0.0,1.1,85,0.00,,,0.14,WUHU216HW,2013-09-18 03:34:00,
2013-09-17 23:39:00,73.4,68.7,30.13,North,0,1.1,1.1,85,0.00,,,0.14,WUHU216HW,2013-09-18 03:39:00,
2013-09-17 23:44:00,73.3,68.9,30.13,NNE,23,0.9,1.3,86,0.00,,,0.14,WUHU216HW,2013-09-18 03:44:00,
2013-09-17 23:49:00,73.1,68.7,30.13,NNE,23,0.7,1.3,86,0.00,,,0.14,WUHU216HW,2013-09-18 03:49:00,
2013-09-17 23:54:00,73.1,68.7,30.13,NNE,23,0.4,1.1,86,0.00,,,0.14,WUHU216HW,2013-09-18 03:54:00,
2013-09-17 23:59:00,72.9,68.1,30.13,NE,45,0.4,1.1,85,0.00,,,0.14,WUHU216HW,2013-09-18 03:59:00,